Davisburg, Kentucky
Current Conditions -  °F | °C
As of 2:15 AM on Friday 31 Oct 2014 (Local Time) from K1A6 Reporting Station
Clear Clear  
Wind Chill:   Ceiling: Unl
Heat Index:   Visibility: 10mi
Dew Point:   Wind: 0mph
Humidity: 99%   Direction: NA
Pressure: 30.03"   Gusts: NA
Location:  36.7417°N, 83.6911°W
Report Text: K1A6 310615Z AUTO 00000KT 10SM CLR 02/02 A3003 RMK AO2 T00210020
Loading
Personal Weather Stations






























Interactive Weather Map
Tropical Storm Tracking
New forecast layout! Learn more

10-Day Weather Forecast

Advertisements
Track Severe Weather on mobile